Time;durP1;ratioP1;P1;durP2;ratioP2;P2;SDS_P1;SDS_P2;PMS_P1;PMS_P2;Temp;Humidity;BMP_temperature;BMP_pressure;BME280_temperature;BME280_humidity;BME280_pressure;Samples;Min_cycle;Max_cycle;Signal;HPM_P1;HPM_P2
2023/04/30 00:01:54;;;;;;;4.47;3.20;;;;;;;;;;4947802;28;20551;-76
2023/04/30 00:04:19;;;;;;;2.13;1.75;;;;;;;;;;4953173;28;20043;-75
2023/04/30 00:06:45;;;;;;;4.15;2.85;;;;;;;;;;4954083;28;20125;-76
2023/04/30 00:09:10;;;;;;;3.95;2.58;;;;;;;;;;4953052;28;20034;-76
2023/04/30 00:11:36;;;;;;;3.20;2.20;;;;;;;;;;4954868;28;20035;-77
2023/04/30 00:14:01;;;;;;;3.13;2.55;;;;;;;;;;4940959;28;20804;-76
2023/04/30 00:16:26;;;;;;;1.95;1.80;;;;;;;;;;4939987;28;20055;-76
2023/04/30 00:18:52;;;;;;;4.00;2.13;;;;;;;;;;4936868;28;20039;-76
2023/04/30 00:21:17;;;;;;;3.92;2.75;;;;;;;;;;4950075;28;20046;-76
2023/04/30 00:23:43;;;;;;;3.08;2.42;;;;;;;;;;4950033;28;20173;-76
2023/04/30 00:26:08;;;;;;;5.28;2.97;;;;;;;;;;4948605;28;20031;-76
2023/04/30 00:28:33;;;;;;;3.97;2.83;;;;;;;;;;4939073;28;20154;-76
2023/04/30 00:30:59;;;;;;;4.68;2.67;;;;;;;;;;4925618;28;20056;-75
2023/04/30 00:33:24;;;;;;;4.10;2.75;;;;;;;;;;4952071;28;20085;-75
2023/04/30 00:35:50;;;;;;;3.40;1.70;;;;;;;;;;4952178;28;20420;-76
2023/04/30 00:38:15;;;;;;;5.22;2.65;;;;;;;;;;4957171;28;20535;-76
2023/04/30 00:40:42;;;;;;;4.32;2.45;;;;;;;;;;4949246;28;20125;-77
2023/04/30 00:43:07;;;;;;;2.15;1.52;;;;;;;;;;4929578;28;20142;-76
2023/04/30 00:45:32;;;;;;;3.08;2.17;;;;;;;;;;4951609;28;20192;-76
2023/04/30 00:47:58;;;;;;;1.40;1.30;;;;;;;;;;4957831;28;20054;-76
2023/04/30 00:50:23;;;;;;;3.17;2.22;;;;;;;;;;4948339;28;20629;-76
2023/04/30 00:52:49;;;;;;;2.63;2.13;;;;;;;;;;4948295;28;20516;-76
2023/04/30 00:55:15;;;;;;;3.22;2.25;;;;;;;;;;4948391;28;20738;-76
2023/04/30 00:57:41;;;;;;;4.15;2.90;;;;;;;;;;4917105;28;20155;-76
2023/04/30 01:00:10;;;;;;;3.70;3.05;;;;;;;;;;4953159;28;20121;-76
2023/04/30 01:02:37;;;;;;;4.57;2.97;;;;;;;;;;4952633;28;20515;-76
2023/04/30 01:05:03;;;;;;;5.65;2.55;;;;;;;;;;4951989;28;20035;-76
2023/04/30 01:07:30;;;;;;;5.10;3.40;;;;;;;;;;4954670;28;20064;-75
2023/04/30 01:09:56;;;;;;;5.32;3.47;;;;;;;;;;4942931;28;20507;-77
2023/04/30 01:12:40;;;;;;;3.55;2.70;;;;;;;;;;4943479;28;20042;-76
2023/04/30 01:15:17;;;;;;;4.63;3.28;;;;;;;;;;4950169;28;20043;-76
2023/04/30 01:18:11;;;;;;;4.38;2.78;;;;;;;;;;4947119;28;20039;-76
2023/04/30 01:20:46;;;;;;;3.70;2.85;;;;;;;;;;4917371;28;20055;-76
2023/04/30 01:23:30;;;;;;;4.57;2.78;;;;;;;;;;4951211;28;20057;-76
2023/04/30 01:26:14;;;;;;;4.43;2.20;;;;;;;;;;4947030;28;20037;-75
2023/04/30 01:28:43;;;;;;;1.20;1.10;;;;;;;;;;4941810;28;20053;-76
2023/04/30 01:31:13;;;;;;;3.05;2.17;;;;;;;;;;4926816;28;20048;-77
2023/04/30 01:33:38;;;;;;;5.05;3.00;;;;;;;;;;4950039;28;20109;-76
2023/04/30 01:36:20;;;;;;;4.65;2.80;;;;;;;;;;4946426;28;20428;-75
2023/04/30 01:39:28;;;;;;;2.28;1.73;;;;;;;;;;4949824;28;20038;-75
2023/04/30 01:42:21;;;;;;;4.75;2.83;;;;;;;;;;4895838;28;20483;-76
2023/04/30 01:45:04;;;;;;;3.75;2.58;;;;;;;;;;4944277;28;20068;-75
2023/04/30 01:47:39;;;;;;;4.63;3.13;;;;;;;;;;4952400;28;20118;-75
2023/04/30 01:50:33;;;;;;;2.67;2.10;;;;;;;;;;4933700;28;20113;-75
2023/04/30 01:53:00;;;;;;;4.63;3.00;;;;;;;;;;4951166;28;20034;-76
2023/04/30 01:55:36;;;;;;;4.93;2.63;;;;;;;;;;4949971;28;20030;-76
2023/04/30 01:58:08;;;;;;;4.57;1.70;;;;;;;;;;4950694;28;20035;-75
2023/04/30 02:00:33;;;;;;;2.17;1.60;;;;;;;;;;4932259;28;20035;-75
2023/04/30 02:02:59;;;;;;;3.25;2.67;;;;;;;;;;4948364;28;20035;-74
2023/04/30 02:05:25;;;;;;;4.90;3.10;;;;;;;;;;4946419;28;20045;-74
2023/04/30 02:07:51;;;;;;;2.97;2.42;;;;;;;;;;4945974;28;20126;-75
2023/04/30 02:10:20;;;;;;;4.32;2.28;;;;;;;;;;4946367;28;20517;-75
2023/04/30 02:12:46;;;;;;;1.58;1.48;;;;;;;;;;4937228;28;20034;-75
2023/04/30 02:15:12;;;;;;;3.97;1.90;;;;;;;;;;4947201;28;20102;-74
2023/04/30 02:17:37;;;;;;;1.88;1.48;;;;;;;;;;4956797;28;20522;-74
2023/04/30 02:20:03;;;;;;;3.00;2.30;;;;;;;;;;4945320;28;20053;-74
2023/04/30 02:22:28;;;;;;;3.10;2.50;;;;;;;;;;4955523;28;20059;-75
2023/04/30 02:24:54;;;;;;;2.78;1.65;;;;;;;;;;4947757;28;20058;-74
2023/04/30 02:27:22;;;;;;;2.60;2.25;;;;;;;;;;4935992;28;20113;-75
2023/04/30 02:29:47;;;;;;;1.70;1.10;;;;;;;;;;4951972;28;20615;-74
2023/04/30 02:32:13;;;;;;;3.95;2.35;;;;;;;;;;4954945;28;20137;-76
2023/04/30 02:34:39;;;;;;;4.47;2.55;;;;;;;;;;4953897;28;20643;-77
2023/04/30 02:37:07;;;;;;;4.28;2.42;;;;;;;;;;4936146;28;20681;-75
2023/04/30 02:39:32;;;;;;;3.65;2.17;;;;;;;;;;4952980;28;20070;-75
2023/04/30 02:41:58;;;;;;;4.65;2.50;;;;;;;;;;4929697;28;20541;-75
2023/04/30 02:44:23;;;;;;;1.65;1.17;;;;;;;;;;4951705;28;20038;-75
2023/04/30 02:46:49;;;;;;;2.40;1.83;;;;;;;;;;4953477;28;20602;-75
2023/04/30 02:49:15;;;;;;;2.97;2.40;;;;;;;;;;4952282;28;20558;-75
2023/04/30 02:51:40;;;;;;;5.78;2.90;;;;;;;;;;4949641;28;20054;-75
2023/04/30 02:54:05;;;;;;;3.20;2.38;;;;;;;;;;4952692;28;20117;-76
2023/04/30 02:56:31;;;;;;;1.90;1.65;;;;;;;;;;4935228;28;20094;-75
2023/04/30 02:58:56;;;;;;;6.10;3.10;;;;;;;;;;4950650;28;20074;-76
2023/04/30 03:01:21;;;;;;;3.67;2.10;;;;;;;;;;4955538;28;20046;-75
2023/04/30 03:03:47;;;;;;;1.38;1.27;;;;;;;;;;4932963;28;20047;-75
2023/04/30 03:06:12;;;;;;;2.55;1.92;;;;;;;;;;4956761;28;20039;-75
2023/04/30 03:08:38;;;;;;;4.57;2.00;;;;;;;;;;4950684;28;20411;-76
2023/04/30 03:11:03;;;;;;;7.05;2.80;;;;;;;;;;4932161;28;20036;-76
2023/04/30 03:13:28;;;;;;;1.98;1.23;;;;;;;;;;4949037;28;20142;-75
2023/04/30 03:16:00;;;;;;;2.75;2.25;;;;;;;;;;4936306;28;20047;-75
2023/04/30 03:18:27;;;;;;;4.63;2.67;;;;;;;;;;4949654;28;20490;-75
2023/04/30 03:20:53;;;;;;;1.92;1.83;;;;;;;;;;4954101;28;20066;-74
2023/04/30 03:23:18;;;;;;;3.53;2.97;;;;;;;;;;4940315;28;20065;-76
2023/04/30 03:25:43;;;;;;;4.63;3.10;;;;;;;;;;4955246;28;20038;-76
2023/04/30 03:28:09;;;;;;;1.27;0.98;;;;;;;;;;4953409;28;20137;-75
2023/04/30 03:30:34;;;;;;;2.35;1.15;;;;;;;;;;4956141;28;20555;-74
2023/04/30 03:33:00;;;;;;;8.80;3.72;;;;;;;;;;4954377;28;20081;-76
2023/04/30 03:35:26;;;;;;;4.18;3.38;;;;;;;;;;4954059;28;20145;-75
2023/04/30 03:37:51;;;;;;;3.83;2.97;;;;;;;;;;4932017;28;20042;-76
2023/04/30 03:40:17;;;;;;;6.07;2.90;;;;;;;;;;4938617;28;20038;-75
2023/04/30 03:42:42;;;;;;;4.25;3.05;;;;;;;;;;4949487;28;20038;-74
2023/04/30 03:45:08;;;;;;;5.18;3.15;;;;;;;;;;4952329;28;20063;-75
2023/04/30 03:47:34;;;;;;;4.57;2.50;;;;;;;;;;4952305;28;20038;-75
2023/04/30 03:50:03;;;;;;;3.92;2.60;;;;;;;;;;4949909;28;20047;-76
2023/04/30 03:52:30;;;;;;;5.32;3.05;;;;;;;;;;4929722;28;20721;-76
2023/04/30 03:54:55;;;;;;;4.50;2.78;;;;;;;;;;4944220;28;20054;-77
2023/04/30 03:57:21;;;;;;;5.20;3.13;;;;;;;;;;4949894;28;20035;-75
2023/04/30 03:59:46;;;;;;;6.45;2.80;;;;;;;;;;4950866;28;20034;-76
2023/04/30 04:02:12;;;;;;;3.10;2.47;;;;;;;;;;4950239;28;20047;-77
2023/04/30 04:04:37;;;;;;;2.97;2.50;;;;;;;;;;4932650;28;20508;-75
2023/04/30 04:07:03;;;;;;;3.17;2.50;;;;;;;;;;4949390;28;20760;-76
2023/04/30 04:09:29;;;;;;;4.47;3.08;;;;;;;;;;4950661;28;20038;-76
2023/04/30 04:11:55;;;;;;;4.88;2.50;;;;;;;;;;4954531;28;20066;-75
2023/04/30 04:14:20;;;;;;;1.85;1.67;;;;;;;;;;4953520;28;20034;-76
2023/04/30 04:16:45;;;;;;;2.13;1.90;;;;;;;;;;4955143;28;20043;-75
2023/04/30 04:19:12;;;;;;;4.97;2.35;;;;;;;;;;4933974;28;20591;-74
2023/04/30 04:21:37;;;;;;;7.63;3.13;;;;;;;;;;4950758;28;20055;-75
2023/04/30 04:24:07;;;;;;;5.25;3.30;;;;;;;;;;4947415;28;20049;-75
2023/04/30 04:26:33;;;;;;;5.38;3.05;;;;;;;;;;4950625;28;20128;-74
2023/04/30 04:28:59;;;;;;;5.00;2.70;;;;;;;;;;4952531;28;20042;-75
2023/04/30 04:31:25;;;;;;;4.43;3.10;;;;;;;;;;4937825;28;20043;-75
2023/04/30 04:33:56;;;;;;;4.60;2.63;;;;;;;;;;4928623;28;20595;-76
2023/04/30 04:36:22;;;;;;;;;;;;;;;;;;4960114;28;20134;-74
2023/04/30 04:38:47;;;;;;;6.07;3.03;;;;;;;;;;4960133;28;20064;-74
2023/04/30 04:41:13;;;;;;;4.85;3.03;;;;;;;;;;4951815;28;20046;-75
2023/04/30 04:43:38;;;;;;;5.85;4.03;;;;;;;;;;4946111;28;20094;-75
2023/04/30 04:46:04;;;;;;;7.97;3.25;;;;;;;;;;4943220;28;20093;-76
2023/04/30 04:48:29;;;;;;;5.97;3.50;;;;;;;;;;4934461;28;20469;-74
2023/04/30 04:50:56;;;;;;;4.88;3.35;;;;;;;;;;4947513;28;20047;-75
2023/04/30 04:53:21;;;;;;;6.65;3.63;;;;;;;;;;4943173;28;20042;-75
2023/04/30 04:55:46;;;;;;;4.68;3.40;;;;;;;;;;4951320;28;20034;-76
2023/04/30 04:58:12;;;;;;;4.68;3.47;;;;;;;;;;4951045;28;20039;-74
2023/04/30 05:00:38;;;;;;;6.78;3.55;;;;;;;;;;4932106;28;20089;-75
2023/04/30 05:03:03;;;;;;;5.60;2.80;;;;;;;;;;4949211;28;20547;-76
2023/04/30 05:05:29;;;;;;;5.65;3.53;;;;;;;;;;4944836;28;20047;-74
2023/04/30 05:07:54;;;;;;;10.10;4.07;;;;;;;;;;4946700;28;20077;-76
2023/04/30 05:10:20;;;;;;;9.50;4.18;;;;;;;;;;4947322;28;20081;-74
2023/04/30 05:12:46;;;;;;;6.80;3.72;;;;;;;;;;4945983;28;20462;-76
2023/04/30 05:15:11;;;;;;;5.75;3.90;;;;;;;;;;4924810;28;20528;-75
2023/04/30 05:17:36;;;;;;;5.60;3.13;;;;;;;;;;4945944;28;20051;-76
2023/04/30 05:20:02;;;;;;;7.53;3.42;;;;;;;;;;4944760;28;20041;-76
2023/04/30 05:22:27;;;;;;;5.43;3.70;;;;;;;;;;4947789;28;20683;-76
2023/04/30 05:24:53;;;;;;;4.78;3.17;;;;;;;;;;4937100;28;20493;-76
2023/04/30 05:27:18;;;;;;;6.90;4.20;;;;;;;;;;4945244;28;20046;-76
2023/04/30 05:29:43;;;;;;;7.35;3.60;;;;;;;;;;4929511;28;20050;-77
2023/04/30 05:32:09;;;;;;;5.25;4.03;;;;;;;;;;4949817;28;20087;-74
2023/04/30 05:34:34;;;;;;;6.68;4.05;;;;;;;;;;4945840;28;20085;-77
2023/04/30 05:37:00;;;;;;;6.80;3.90;;;;;;;;;;4939592;28;20039;-75
2023/04/30 05:39:25;;;;;;;5.85;3.85;;;;;;;;;;4939259;28;20042;-71
2023/04/30 05:41:51;;;;;;;8.82;3.83;;;;;;;;;;4942687;28;20069;-77
2023/04/30 05:44:16;;;;;;;10.57;4.22;;;;;;;;;;4921217;28;20106;-75
2023/04/30 05:46:42;;;;;;;5.22;3.55;;;;;;;;;;4950184;28;20069;-75
2023/04/30 05:49:07;;;;;;;7.28;4.10;;;;;;;;;;4949882;28;20142;-75
2023/04/30 05:51:32;;;;;;;6.95;4.30;;;;;;;;;;4952821;28;20074;-74
2023/04/30 05:53:59;;;;;;;5.60;3.80;;;;;;;;;;4953908;28;20042;-76
2023/04/30 05:56:25;;;;;;;6.75;4.47;;;;;;;;;;4949672;28;20030;-75
2023/04/30 05:58:51;;;;;;;8.10;4.07;;;;;;;;;;4927586;28;20061;-75
2023/04/30 06:01:18;;;;;;;5.82;4.20;;;;;;;;;;4944539;28;20182;-77
2023/04/30 06:03:43;;;;;;;6.30;4.00;;;;;;;;;;4943127;28;20125;-75
2023/04/30 06:06:09;;;;;;;5.95;4.45;;;;;;;;;;4950680;28;20180;-76
2023/04/30 06:08:35;;;;;;;6.57;4.00;;;;;;;;;;4947958;28;20583;-75
2023/04/30 06:11:02;;;;;;;6.60;4.15;;;;;;;;;;4934835;28;20042;-76
2023/04/30 06:13:28;;;;;;;8.95;4.38;;;;;;;;;;4947645;28;20069;-75
2023/04/30 06:15:53;;;;;;;7.93;4.15;;;;;;;;;;4954200;28;20082;-74
2023/04/30 06:18:19;;;;;;;8.15;4.78;;;;;;;;;;4948170;28;20074;-74
2023/04/30 06:20:45;;;;;;;7.10;4.32;;;;;;;;;;4947145;28;20038;-76
2023/04/30 06:23:10;;;;;;;8.88;5.72;;;;;;;;;;4946984;28;20034;-75
2023/04/30 06:25:36;;;;;;;8.77;5.50;;;;;;;;;;4930214;28;20474;-76
2023/04/30 06:28:01;;;;;;;9.10;5.03;;;;;;;;;;4947363;28;20034;-76
2023/04/30 06:30:26;;;;;;;9.07;5.65;;;;;;;;;;4950212;28;20043;-74
2023/04/30 06:32:52;;;;;;;11.05;6.22;;;;;;;;;;4947609;28;20181;-74
2023/04/30 06:35:17;;;;;;;10.35;5.38;;;;;;;;;;4947659;28;20041;-76
2023/04/30 06:37:43;;;;;;;3.17;2.15;;;;;;;;;;4932523;28;20492;-76
2023/04/30 06:40:08;;;;;;;9.52;5.53;;;;;;;;;;4937358;28;20038;-74
2023/04/30 06:42:34;;;;;;;9.52;5.38;;;;;;;;;;4951696;28;20602;-76
2023/04/30 06:45:05;;;;;;;9.80;6.22;;;;;;;;;;4951391;28;20031;-75
2023/04/30 06:47:35;;;;;;;11.77;5.53;;;;;;;;;;4949469;28;20031;-76
2023/04/30 06:50:01;;;;;;;12.95;6.30;;;;;;;;;;4947129;28;20043;-75
2023/04/30 06:52:26;;;;;;;9.90;5.00;;;;;;;;;;4934100;28;20054;-76
2023/04/30 06:54:52;;;;;;;9.45;5.47;;;;;;;;;;4939481;28;20045;-73
2023/04/30 06:57:17;;;;;;;11.68;5.30;;;;;;;;;;4943677;28;20050;-75
2023/04/30 06:59:43;;;;;;;7.45;4.85;;;;;;;;;;4945030;28;20511;-76
2023/04/30 07:02:08;;;;;;;9.77;5.15;;;;;;;;;;4945016;28;20042;-75
2023/04/30 07:04:34;;;;;;;10.32;5.05;;;;;;;;;;4950409;28;20074;-76
2023/04/30 07:07:00;;;;;;;7.57;5.00;;;;;;;;;;4930450;28;20055;-75
2023/04/30 07:09:27;;;;;;;7.90;5.57;;;;;;;;;;4953049;28;20609;-76
2023/04/30 07:11:53;;;;;;;8.52;4.57;;;;;;;;;;4947834;28;20101;-76
2023/04/30 07:14:18;;;;;;;9.95;5.60;;;;;;;;;;4951499;28;20043;-76
2023/04/30 07:16:44;;;;;;;8.75;4.95;;;;;;;;;;4955050;28;20047;-75
2023/04/30 07:19:09;;;;;;;10.10;5.28;;;;;;;;;;4952864;28;20464;-76
2023/04/30 07:21:35;;;;;;;7.65;5.60;;;;;;;;;;4933346;28;20046;-76
2023/04/30 07:24:00;;;;;;;7.50;5.20;;;;;;;;;;4952382;28;20042;-76
2023/04/30 07:26:25;;;;;;;6.38;4.88;;;;;;;;;;4951563;28;20046;-75
2023/04/30 07:28:51;;;;;;;7.35;5.30;;;;;;;;;;4952611;28;20069;-76
2023/04/30 07:31:18;;;;;;;8.75;5.28;;;;;;;;;;4950425;28;20703;-74
2023/04/30 07:33:43;;;;;;;7.38;4.85;;;;;;;;;;4951638;28;20478;-75
2023/04/30 07:36:09;;;;;;;6.82;4.78;;;;;;;;;;4929680;28;20034;-75
2023/04/30 07:38:35;;;;;;;8.18;4.85;;;;;;;;;;4949643;28;20045;-74
2023/04/30 07:41:01;;;;;;;7.88;4.72;;;;;;;;;;4949729;28;20702;-74
2023/04/30 07:43:27;;;;;;;6.45;4.40;;;;;;;;;;4948540;28;20042;-74
2023/04/30 07:45:53;;;;;;;6.75;4.88;;;;;;;;;;4942747;28;20057;-75
2023/04/30 07:48:20;;;;;;;9.00;4.90;;;;;;;;;;4949226;28;20478;-76
2023/04/30 07:50:48;;;;;;;5.38;3.90;;;;;;;;;;4933782;28;20511;-76
2023/04/30 07:53:15;;;;;;;8.65;4.50;;;;;;;;;;4953653;28;20477;-75
2023/04/30 07:55:41;;;;;;;7.95;4.95;;;;;;;;;;4948368;28;20039;-74
2023/04/30 07:58:06;;;;;;;7.25;5.30;;;;;;;;;;4951493;28;20045;-74
2023/04/30 08:00:32;;;;;;;6.80;5.07;;;;;;;;;;4949362;28;20039;-74
2023/04/30 08:02:59;;;;;;;7.85;4.88;;;;;;;;;;4929677;28;20042;-74
2023/04/30 08:05:25;;;;;;;9.73;6.13;;;;;;;;;;4932067;28;20039;-74
2023/04/30 08:07:50;;;;;;;12.48;6.40;;;;;;;;;;4947612;28;20065;-75
2023/04/30 08:10:16;;;;;;;7.90;5.97;;;;;;;;;;4942903;28;20047;-74
2023/04/30 08:12:41;;;;;;;8.15;5.80;;;;;;;;;;4963893;28;20070;-74
2023/04/30 08:15:07;;;;;;;10.23;5.65;;;;;;;;;;4940967;28;20066;-75
2023/04/30 08:17:33;;;;;;;9.07;5.97;;;;;;;;;;4936536;28;20042;-74
2023/04/30 08:20:00;;;;;;;9.90;5.70;;;;;;;;;;4949013;28;20515;-75
2023/04/30 08:22:25;;;;;;;11.93;6.25;;;;;;;;;;4958473;28;20078;-75
2023/04/30 08:24:51;;;;;;;9.98;5.72;;;;;;;;;;4955093;28;20520;-74
2023/04/30 08:27:16;;;;;;;9.82;5.18;;;;;;;;;;4953632;28;20090;-75
2023/04/30 08:29:41;;;;;;;7.75;5.90;;;;;;;;;;4951523;28;20130;-74
2023/04/30 08:32:08;;;;;;;7.57;5.38;;;;;;;;;;4931510;28;20120;-74
2023/04/30 08:34:33;;;;;;;7.13;5.63;;;;;;;;;;4949549;28;20073;-74
2023/04/30 08:36:59;;;;;;;8.35;5.80;;;;;;;;;;4950901;28;20089;-74
2023/04/30 08:39:24;;;;;;;10.27;5.38;;;;;;;;;;4945036;28;21004;-75
2023/04/30 08:41:54;;;;;;;7.13;5.22;;;;;;;;;;4951670;28;20038;-74
2023/04/30 08:44:22;;;;;;;12.57;5.93;;;;;;;;;;4928885;28;20050;-75
2023/04/30 08:46:52;;;;;;;7.93;5.72;;;;;;;;;;4953235;28;20413;-75
2023/04/30 08:49:17;;;;;;;8.77;5.57;;;;;;;;;;4952963;28;20614;-76
2023/04/30 08:51:44;;;;;;;3.60;2.88;;;;;;;;;;4938627;28;20058;-76
2023/04/30 08:54:11;;;;;;;10.27;5.55;;;;;;;;;;4941843;28;20039;-76
2023/04/30 08:56:37;;;;;;;11.85;6.47;;;;;;;;;;4947897;28;20038;-76
2023/04/30 08:59:02;;;;;;;10.25;5.53;;;;;;;;;;4927517;28;20047;-74
2023/04/30 09:01:29;;;;;;;8.82;5.25;;;;;;;;;;4942356;28;20134;-76
2023/04/30 09:03:55;;;;;;;7.82;5.00;;;;;;;;;;4953368;28;20038;-75
2023/04/30 09:06:21;;;;;;;9.55;5.78;;;;;;;;;;4949336;28;20035;-77
2023/04/30 09:08:48;;;;;;;9.15;6.07;;;;;;;;;;4951037;28;20034;-73
2023/04/30 09:11:22;;;;;;;9.93;5.70;;;;;;;;;;4944814;28;20062;-74
2023/04/30 09:13:51;;;;;;;7.40;5.50;;;;;;;;;;4921252;28;20077;-74
2023/04/30 09:16:17;;;;;;;10.60;5.45;;;;;;;;;;4948484;28;20051;-76
2023/04/30 09:18:42;;;;;;;8.90;5.82;;;;;;;;;;4948586;28;20042;-75
2023/04/30 09:21:08;;;;;;;8.10;5.35;;;;;;;;;;4951833;28;20125;-76
2023/04/30 09:23:33;;;;;;;9.05;5.75;;;;;;;;;;4947574;28;20519;-76
2023/04/30 09:25:59;;;;;;;7.72;5.80;;;;;;;;;;4939763;28;20466;-76
2023/04/30 09:28:27;;;;;;;7.80;5.50;;;;;;;;;;4919833;28;20047;-75
2023/04/30 09:30:55;;;;;;;6.80;4.80;;;;;;;;;;4956576;28;20535;-75
2023/04/30 09:33:21;;;;;;;7.47;5.25;;;;;;;;;;4956522;28;20043;-75
2023/04/30 09:35:47;;;;;;;8.77;5.18;;;;;;;;;;4952489;28;20034;-77
2023/04/30 09:38:31;;;;;;;8.18;4.80;;;;;;;;;;4950536;28;20134;-76
2023/04/30 09:40:59;;;;;;;6.38;4.60;;;;;;;;;;4913898;28;20060;-75
2023/04/30 09:43:24;;;;;;;7.88;5.30;;;;;;;;;;4946752;28;20495;-74
2023/04/30 09:45:51;;;;;;;6.00;4.82;;;;;;;;;;4955795;28;20038;-75
2023/04/30 09:48:24;;;;;;;5.10;3.28;;;;;;;;;;4947775;28;20043;-76
2023/04/30 09:50:50;;;;;;;5.25;3.35;;;;;;;;;;4948984;28;20129;-74
2023/04/30 09:53:18;;;;;;;8.32;4.18;;;;;;;;;;4925157;28;20047;-75
2023/04/30 09:55:49;;;;;;;6.40;3.90;;;;;;;;;;4950144;28;20104;-76
2023/04/30 09:58:16;;;;;;;4.03;2.65;;;;;;;;;;4948171;28;20043;-75
2023/04/30 10:00:44;;;;;;;5.20;3.15;;;;;;;;;;4935811;28;20459;-76
2023/04/30 10:03:14;;;;;;;4.82;2.88;;;;;;;;;;4931747;28;20046;-76
2023/04/30 10:05:47;;;;;;;3.28;2.97;;;;;;;;;;4932901;28;20108;-77
2023/04/30 10:08:23;;;;;;;3.38;2.58;;;;;;;;;;4947918;28;20043;-74
2023/04/30 10:10:51;;;;;;;4.60;3.10;;;;;;;;;;4946126;28;20042;-74
2023/04/30 10:13:19;;;;;;;4.32;2.90;;;;;;;;;;4946263;28;20062;-76
2023/04/30 10:15:53;;;;;;;3.15;2.70;;;;;;;;;;4948922;28;20039;-75
2023/04/30 10:18:25;;;;;;;3.97;2.80;;;;;;;;;;4918780;28;20070;-77
2023/04/30 10:20:53;;;;;;;3.72;3.13;;;;;;;;;;4936870;28;20678;-74
2023/04/30 10:23:20;;;;;;;4.47;2.70;;;;;;;;;;4930714;28;20046;-77
2023/04/30 10:25:46;;;;;;;3.17;2.88;;;;;;;;;;4942922;28;20047;-75
2023/04/30 10:28:11;;;;;;;3.88;3.03;;;;;;;;;;4943535;28;20095;-76
2023/04/30 10:30:37;;;;;;;4.15;3.03;;;;;;;;;;4919504;28;20039;-76
2023/04/30 10:33:14;;;;;;;3.10;2.70;;;;;;;;;;4936678;28;20059;-76
2023/04/30 10:35:56;;;;;;;4.22;2.72;;;;;;;;;;4946349;28;20055;-77
2023/04/30 10:38:24;;;;;;;4.05;2.72;;;;;;;;;;4934960;28;20051;-74
2023/04/30 10:40:53;;;;;;;4.30;3.33;;;;;;;;;;4937127;28;20452;-75
2023/04/30 10:43:20;;;;;;;4.28;2.67;;;;;;;;;;4929606;28;20043;-75
2023/04/30 10:45:46;;;;;;;16.25;3.63;;;;;;;;;;4954419;28;20074;-76
2023/04/30 10:48:15;;;;;;;3.97;2.47;;;;;;;;;;4953664;28;20117;-76
2023/04/30 10:50:42;;;;;;;3.45;2.40;;;;;;;;;;4960642;28;20751;-76
2023/04/30 10:53:14;;;;;;;3.85;3.25;;;;;;;;;;4952425;28;20050;-76
2023/04/30 10:55:48;;;;;;;4.13;2.50;;;;;;;;;;4937457;28;20125;-77
2023/04/30 10:58:30;;;;;;;3.30;2.35;;;;;;;;;;4960490;28;20511;-77
2023/04/30 11:01:11;;;;;;;3.05;2.20;;;;;;;;;;4956757;28;20096;-78
2023/04/30 11:03:38;;;;;;;3.33;1.92;;;;;;;;;;4957857;28;20065;-75
2023/04/30 11:06:12;;;;;;;4.18;2.42;;;;;;;;;;4943519;28;20034;-76
2023/04/30 11:08:39;;;;;;;4.13;2.20;;;;;;;;;;4940444;28;20123;-75
2023/04/30 11:11:08;;;;;;;4.45;2.60;;;;;;;;;;4963453;28;20076;-77
2023/04/30 11:13:58;;;;;;;2.38;1.20;;;;;;;;;;4959300;28;20156;-78
2023/04/30 11:16:32;;;;;;;5.03;2.88;;;;;;;;;;4953238;28;20094;-74
2023/04/30 11:19:12;;;;;;;3.90;2.85;;;;;;;;;;4957562;28;20052;-74
2023/04/30 11:22:01;;;;;;;7.15;2.78;;;;;;;;;;4961415;28;20053;-75
2023/04/30 11:25:08;;;;;;;3.38;2.28;;;;;;;;;;4965278;28;20035;-76
2023/04/30 11:27:36;;;;;;;4.22;2.80;;;;;;;;;;4916485;28;20148;-78
2023/04/30 11:30:04;;;;;;;5.50;3.35;;;;;;;;;;4964259;28;20043;-77
2023/04/30 11:32:34;;;;;;;4.10;2.88;;;;;;;;;;4961601;28;20157;-77
2023/04/30 11:35:01;;;;;;;3.88;2.67;;;;;;;;;;4963903;28;20038;-76
2023/04/30 11:37:35;;;;;;;1.60;1.50;;;;;;;;;;4962230;28;20069;-77
2023/04/30 11:40:06;;;;;;;3.28;2.22;;;;;;;;;;4913312;28;20054;-76
2023/04/30 11:42:35;;;;;;;3.90;2.78;;;;;;;;;;4958606;28;20058;-75
2023/04/30 11:45:04;;;;;;;5.10;3.05;;;;;;;;;;4937169;28;20047;-75
2023/04/30 11:47:50;;;;;;;4.97;2.90;;;;;;;;;;4955649;28;20052;-75
2023/04/30 11:50:18;;;;;;;1.48;1.30;;;;;;;;;;4940409;28;20042;-75
2023/04/30 11:52:51;;;;;;;3.80;2.60;;;;;;;;;;4960453;28;20507;-75
2023/04/30 11:55:18;;;;;;;5.28;2.90;;;;;;;;;;4959212;28;20054;-76
2023/04/30 11:57:48;;;;;;;4.22;2.83;;;;;;;;;;4959733;28;20093;-77
2023/04/30 12:00:35;;;;;;;5.18;2.85;;;;;;;;;;4954455;28;20031;-76
2023/04/30 12:03:02;;;;;;;4.75;2.80;;;;;;;;;;4910714;28;20126;-76
2023/04/30 12:05:27;;;;;;;2.92;1.98;;;;;;;;;;4957692;28;20148;-75
2023/04/30 12:07:59;;;;;;;3.80;2.72;;;;;;;;;;4960125;28;20150;-76
2023/04/30 12:10:24;;;;;;;3.58;2.92;;;;;;;;;;4956362;28;20299;-77
2023/04/30 12:12:51;;;;;;;5.50;2.80;;;;;;;;;;4963051;28;20789;-76
2023/04/30 12:15:27;;;;;;;2.20;1.90;;;;;;;;;;4939647;28;20075;-77
2023/04/30 12:17:57;;;;;;;3.85;2.95;;;;;;;;;;4945539;28;20047;-77
2023/04/30 12:20:25;;;;;;;3.10;2.55;;;;;;;;;;4956310;28;20125;-75
2023/04/30 12:22:51;;;;;;;5.70;3.10;;;;;;;;;;4947516;28;20043;-77
2023/04/30 12:25:19;;;;;;;3.38;2.53;;;;;;;;;;4951247;28;20149;-76
2023/04/30 12:27:46;;;;;;;2.17;1.40;;;;;;;;;;4958586;28;20030;-76
2023/04/30 12:30:12;;;;;;;4.53;2.75;;;;;;;;;;4938604;28;20637;-76
2023/04/30 12:32:43;;;;;;;3.30;2.80;;;;;;;;;;4939332;28;20173;-76
2023/04/30 12:35:14;;;;;;;5.35;2.92;;;;;;;;;;4951573;28;20069;-77
2023/04/30 12:37:46;;;;;;;;;;;;;;;;;;4953226;28;20050;-76
2023/04/30 12:40:13;;;;;;;2.63;2.40;;;;;;;;;;4956333;28;19920;-78
2023/04/30 12:42:41;;;;;;;3.00;2.22;;;;;;;;;;4937465;28;20051;-76
2023/04/30 12:45:07;;;;;;;2.65;2.08;;;;;;;;;;4950846;28;20100;-76
2023/04/30 12:47:38;;;;;;;4.22;2.10;;;;;;;;;;4957777;28;20754;-76
2023/04/30 12:50:05;;;;;;;4.50;2.50;;;;;;;;;;4937461;28;20046;-76
2023/04/30 12:52:32;;;;;;;3.88;2.53;;;;;;;;;;4958293;28;20046;-76
2023/04/30 12:55:17;;;;;;;3.13;2.05;;;;;;;;;;4929767;28;20050;-77
2023/04/30 12:58:05;;;;;;;4.18;2.53;;;;;;;;;;4953105;28;20121;-77
2023/04/30 13:00:46;;;;;;;2.85;2.10;;;;;;;;;;4956197;28;20046;-76
2023/04/30 13:03:12;;;;;;;2.88;2.33;;;;;;;;;;4924623;28;20527;-76
2023/04/30 13:05:39;;;;;;;5.43;2.60;;;;;;;;;;4953006;28;20070;-77
2023/04/30 13:08:05;;;;;;;3.55;2.58;;;;;;;;;;4954213;28;20038;-77
2023/04/30 13:10:31;;;;;;;2.22;2.03;;;;;;;;;;4954731;28;20097;-76
2023/04/30 13:12:57;;;;;;;3.55;2.45;;;;;;;;;;4954417;28;20038;-76
2023/04/30 13:15:22;;;;;;;4.45;2.63;;;;;;;;;;4943447;28;20097;-76
2023/04/30 13:17:48;;;;;;;5.35;3.13;;;;;;;;;;4922691;28;20503;-76
2023/04/30 13:20:15;;;;;;;3.85;2.47;;;;;;;;;;4944061;28;20399;-76
2023/04/30 13:22:41;;;;;;;4.55;2.40;;;;;;;;;;4943184;28;20449;-76
2023/04/30 13:25:07;;;;;;;3.92;2.42;;;;;;;;;;4944896;28;20586;-77
2023/04/30 13:27:32;;;;;;;3.90;2.78;;;;;;;;;;4951573;28;20041;-76
2023/04/30 13:29:58;;;;;;;4.13;2.60;;;;;;;;;;4955247;28;20451;-77
2023/04/30 13:32:24;;;;;;;4.15;2.60;;;;;;;;;;4923225;28;20060;-76
2023/04/30 13:34:51;;;;;;;2.67;2.13;;;;;;;;;;4946230;28;20070;-76
2023/04/30 13:37:17;;;;;;;3.33;2.60;;;;;;;;;;4951248;28;20042;-77
2023/04/30 13:39:42;;;;;;;4.88;2.50;;;;;;;;;;4954551;28;20034;-78
2023/04/30 13:42:07;;;;;;;3.72;2.63;;;;;;;;;;4951878;28;20077;-76
2023/04/30 13:44:34;;;;;;;4.88;2.50;;;;;;;;;;4936637;28;20126;-78
2023/04/30 13:47:02;;;;;;;5.90;2.70;;;;;;;;;;4954961;28;20052;-77
2023/04/30 13:49:27;;;;;;;4.03;2.45;;;;;;;;;;4948689;28;20034;-76
2023/04/30 13:51:52;;;;;;;3.03;2.33;;;;;;;;;;4945572;28;20031;-76
2023/04/30 13:54:18;;;;;;;3.95;2.33;;;;;;;;;;4928151;28;20415;-78
2023/04/30 13:56:43;;;;;;;4.05;2.55;;;;;;;;;;4945397;28;20068;-76
2023/04/30 13:59:09;;;;;;;7.10;2.63;;;;;;;;;;4916243;28;21239;-77
2023/04/30 14:01:35;;;;;;;3.03;2.63;;;;;;;;;;4941116;28;20039;-77
2023/04/30 14:04:01;;;;;;;4.03;2.70;;;;;;;;;;4947490;28;20050;-77
2023/04/30 14:06:28;;;;;;;2.53;1.40;;;;;;;;;;4951672;28;20043;-77
2023/04/30 14:08:53;;;;;;;4.72;2.78;;;;;;;;;;4950071;28;20056;-76
2023/04/30 14:11:18;;;;;;;2.67;1.80;;;;;;;;;;4951232;28;20042;-76
2023/04/30 14:13:44;;;;;;;3.13;2.28;;;;;;;;;;4926211;28;20035;-77
2023/04/30 14:16:09;;;;;;;4.72;2.30;;;;;;;;;;4947267;28;20617;-76
2023/04/30 14:18:35;;;;;;;4.05;2.83;;;;;;;;;;4940705;28;20031;-77
2023/04/30 14:21:00;;;;;;;3.67;2.22;;;;;;;;;;4940381;28;20053;-76
2023/04/30 14:23:27;;;;;;;4.78;2.70;;;;;;;;;;4949946;28;20052;-77
2023/04/30 14:25:55;;;;;;;4.00;2.50;;;;;;;;;;4953184;28;20054;-76
2023/04/30 14:28:21;;;;;;;5.10;2.47;;;;;;;;;;4925305;28;20046;-78
2023/04/30 14:30:46;;;;;;;4.47;2.80;;;;;;;;;;4929910;28;20047;-74
2023/04/30 14:33:13;;;;;;;5.25;2.92;;;;;;;;;;4946419;28;20055;-76
2023/04/30 14:35:38;;;;;;;2.28;1.77;;;;;;;;;;4925661;28;20035;-76
2023/04/30 14:38:04;;;;;;;5.93;2.50;;;;;;;;;;4926859;28;20043;-74
2023/04/30 14:40:29;;;;;;;4.22;2.70;;;;;;;;;;4913087;28;20208;-77
2023/04/30 14:42:56;;;;;;;3.58;2.53;;;;;;;;;;4913986;28;20559;-74
2023/04/30 14:45:22;;;;;;;4.72;2.42;;;;;;;;;;4927497;28;20050;-75
2023/04/30 14:47:47;;;;;;;4.88;2.80;;;;;;;;;;4946338;28;20045;-73